Terminal Aerodrome Forecast
Issued by NWS

Home | Current Version | Previous Version | Text Only | Print | Product List | Glossary Off
Versions: 1 2 3 4 5 6 7 8 9 10 11 12 13 14 15 16 17 18 19

000
FTUS43 KGRB 172300
TAFRHI
TAF
KRHI 172322Z 1800/1824 29007KT P6SM BKN018
     FM180300 29004KT P6SM SCT025 SCT250
     FM180600 29003KT 2SM BR SCT006 SCT250
      TEMPO 1808/1812 3/4SM BR BKN006 BKN250
     FM181200 32003KT 5SM BR SCT012 BKN120
     FM181400 33005KT P6SM SCT025 BKN120
     FM182000 08007KT P6SM SCT040 BKN120=

USA.gov is the U.S. government's official web portal to all federal, state and local government web resources and services.